Sovereign — 9HUE9 — position and weather

sailwx.info

Track history (hours):
 
Tides and Currents Weather Stations Pressure Air Temp Water Temp Dewpoint Dewpoint Depression Visibility Wind Speed Wind Dir Waves Ship Positions

Sovereign

Last reported at 2015-Jul-31 10:16 UTC. Time now 2015-Jul-31 11:17 UTC.
Position N 43°42' E 007°19'.

Length 268 m.

Type: Passenger vessel. MMSI: 249539000.

Date/timePositionNaut miles runAvg speedWind from/ knotsBaromVisibWave heightAir tempDewpointWater temp
2015-Jul-31 10:16N 43°42' E 007°19'0 0.0
2015-Jul-31 04:27N 43°42' E 007°19'9 9.8
2015-Jul-31 03:32N 43°39' E 007°31'1313.3
2015-Jul-31 02:33N 43°38' E 007°49'1313.1
2015-Jul-31 01:33N 43°37' E 008°07'1312.8
2015-Jul-31 00:33N 43°37' E 008°24'1312.7
2015-Jul-30 23:33N 43°36' E 008°42'1313.0
2015-Jul-30 22:33N 43°35' E 008°60'1312.6
2015-Jul-30 21:33N 43°34' E 009°17'1212.2
2015-Jul-30 20:33N 43°33' E 009°34'1211.7
2015-Jul-30 19:33N 43°33' E 009°50'1111.0
2015-Jul-30 18:33N 43°30' E 010°05'10 9.7
2015-Jul-30 17:33N 43°33' E 010°18'1 0.5
2015-Jul-30 16:32N 43°33' E 010°18'0 0.0
2015-Jul-30 15:32N 43°33' E 010°18'0 0.0
2015-Jul-30 14:32N 43°33' E 010°18'0 0.0
2015-Jul-30 13:32N 43°33' E 010°18'0 0.0
2015-Jul-30 12:32N 43°33' E 010°18'0 0.0
2015-Jul-30 11:32N 43°33' E 010°18'0 0.0
2015-Jul-30 10:32N 43°33' E 010°18'0 0.0
2015-Jul-30 09:32N 43°33' E 010°18'0 0.0
2015-Jul-30 08:29N 43°33' E 010°18'0 0.0
2015-Jul-30 07:29N 43°33' E 010°18'0 0.0
2015-Jul-30 06:32N 43°33' E 010°18'0 0.0
2015-Jul-30 05:29N 43°33' E 010°18'4 4.1
2015-Jul-30 04:34N 43°31' E 010°14'1313.4
2015-Jul-30 03:33N 43°18' E 010°10'1414.3
2015-Jul-30 02:33N 43°03' E 010°09'1414.0
2015-Jul-30 01:33N 42°51' E 010°00'1212.0
2015-Jul-30 00:33N 42°40' E 010°08'1613.1
2015-Jul-29 23:20N 42°28' E 010°22'1113.8
2015-Jul-29 22:33N 42°19' E 010°29'1413.6
2015-Jul-29 21:33N 42°09' E 010°42'1814.2
2015-Jul-29 20:18N 41°60' E 011°02'1414.1
2015-Jul-29 19:19N 42°02' E 011°21'104 5.0
2015-Jul-28 22:32N 41°00' E 013°12'1414.6
2015-Jul-28 21:34N 40°53' E 013°28'1414.3
2015-Jul-28 20:34N 40°43' E 013°41'1313.0
2015-Jul-28 19:34N 40°37' E 013°56'1313.0
2015-Jul-28 18:34N 40°43' E 014°12'7 0.6
2015-Jul-28 06:21N 40°50' E 014°16'8 9.7
2015-Jul-28 05:34N 40°44' E 014°10'1514.7
2015-Jul-28 04:33N 40°38' E 013°52'1515.2
2015-Jul-28 03:33N 40°39' E 013°32'330 8.4
2015-Jul-26 12:24N 41°17' E 006°18'1010.8
2015-Jul-26 11:30N 41°17' E 006°05'176 6.4
2015-Jul-25 08:10N 41°22' E 002°11'1 0.4
2015-Jul-25 05:26N 41°21' E 002°10'7 8.0
2015-Jul-25 04:33N 41°16' E 002°17'4815.3
2015-Jul-25 01:25N 41°17' E 003°21'1516.3
2015-Jul-25 00:30N 41°17' E 003°41'4816.4
2015-Jul-24 21:33N 41°17' E 004°45'2117.1
2015-Jul-24 20:21N 41°18' E 005°13'3016.8
2015-Jul-24 18:33N 41°19' E 005°53'1717.0
2015-Jul-24 17:33N 41°19' E 006°15'1817.0
2015-Jul-24 16:31N 41°20' E 006°39'1716.9
2015-Jul-24 15:32N 41°20' E 007°01'14716.3
2015-Jul-24 06:30N 41°17' E 010°16'1716.7
2015-Jul-24 05:31N 41°16' E 010°39'8416.5
2015-Jul-24 00:25N 40°52' E 012°25'2117.5
2015-Jul-23 23:14N 40°48' E 012°52'1217.7
2015-Jul-23 22:33N 40°44' E 013°08'1817.7
2015-Jul-23 21:33N 40°41' E 013°30'1818.0
2015-Jul-23 20:33N 40°37' E 013°54'22 4.3
2015-Jul-23 15:25N 40°38' E 014°23'0 0.1
2015-Jul-23 14:16N 40°38' E 014°23'0 0.1
2015-Jul-23 13:31N 40°38' E 014°23'0 0.0
2015-Jul-23 12:28N 40°38' E 014°23'0 0.1
2015-Jul-23 11:25N 40°38' E 014°23'0 0.0
2015-Jul-23 10:16N 40°38' E 014°23'0 0.0
2015-Jul-23 09:22N 40°38' E 014°23'0 0.0
2015-Jul-23 08:31N 40°38' E 014°23'0 0.0
2015-Jul-23 07:31N 40°38' E 014°23'127 3.6
2015-Jul-21 20:33N 38°34' E 014°55'14 6.6
2015-Jul-21 18:25N 38°21' E 015°02'  
Track history (hours):
 
Tides and Currents Weather Stations Pressure Air Temp Water Temp Dewpoint Dewpoint Depression Visibility Wind Speed Wind Dir Waves Ship Positions

Sovereign

Last reported at 2015-Jul-31 10:16 UTC. Time now 2015-Jul-31 11:17 UTC.
Position N 43°42' E 007°19'.

Length 268 m.

Type: Passenger vessel. MMSI: 249539000.

Date/timePositionNaut miles runAvg speedWind from/ knotsBaromVisibWave heightAir tempDewpointWater temp
2015-Jul-31 10:16N 43°42' E 007°19'0 0.0
2015-Jul-31 04:27N 43°42' E 007°19'9 9.8
2015-Jul-31 03:32N 43°39' E 007°31'1313.3
2015-Jul-31 02:33N 43°38' E 007°49'1313.1
2015-Jul-31 01:33N 43°37' E 008°07'1312.8
2015-Jul-31 00:33N 43°37' E 008°24'1312.7
2015-Jul-30 23:33N 43°36' E 008°42'1313.0
2015-Jul-30 22:33N 43°35' E 008°60'1312.6
2015-Jul-30 21:33N 43°34' E 009°17'1212.2
2015-Jul-30 20:33N 43°33' E 009°34'1211.7
2015-Jul-30 19:33N 43°33' E 009°50'1111.0
2015-Jul-30 18:33N 43°30' E 010°05'10 9.7
2015-Jul-30 17:33N 43°33' E 010°18'1 0.5
2015-Jul-30 16:32N 43°33' E 010°18'0 0.0
2015-Jul-30 15:32N 43°33' E 010°18'0 0.0
2015-Jul-30 14:32N 43°33' E 010°18'0 0.0
2015-Jul-30 13:32N 43°33' E 010°18'0 0.0
2015-Jul-30 12:32N 43°33' E 010°18'0 0.0
2015-Jul-30 11:32N 43°33' E 010°18'0 0.0
2015-Jul-30 10:32N 43°33' E 010°18'0 0.0
2015-Jul-30 09:32N 43°33' E 010°18'0 0.0
2015-Jul-30 08:29N 43°33' E 010°18'0 0.0
2015-Jul-30 07:29N 43°33' E 010°18'0 0.0
2015-Jul-30 06:32N 43°33' E 010°18'0 0.0
2015-Jul-30 05:29N 43°33' E 010°18'4 4.1
2015-Jul-30 04:34N 43°31' E 010°14'1313.4
2015-Jul-30 03:33N 43°18' E 010°10'1414.3
2015-Jul-30 02:33N 43°03' E 010°09'1414.0
2015-Jul-30 01:33N 42°51' E 010°00'1212.0
2015-Jul-30 00:33N 42°40' E 010°08'1613.1
2015-Jul-29 23:20N 42°28' E 010°22'1113.8
2015-Jul-29 22:33N 42°19' E 010°29'1413.6
2015-Jul-29 21:33N 42°09' E 010°42'1814.2
2015-Jul-29 20:18N 41°60' E 011°02'1414.1
2015-Jul-29 19:19N 42°02' E 011°21'104 5.0
2015-Jul-28 22:32N 41°00' E 013°12'1414.6
2015-Jul-28 21:34N 40°53' E 013°28'1414.3
2015-Jul-28 20:34N 40°43' E 013°41'1313.0
2015-Jul-28 19:34N 40°37' E 013°56'1313.0
2015-Jul-28 18:34N 40°43' E 014°12'7 0.6
2015-Jul-28 06:21N 40°50' E 014°16'8 9.7
2015-Jul-28 05:34N 40°44' E 014°10'1514.7
2015-Jul-28 04:33N 40°38' E 013°52'1515.2
2015-Jul-28 03:33N 40°39' E 013°32'330 8.4
2015-Jul-26 12:24N 41°17' E 006°18'1010.8
2015-Jul-26 11:30N 41°17' E 006°05'176 6.4
2015-Jul-25 08:10N 41°22' E 002°11'1 0.4
2015-Jul-25 05:26N 41°21' E 002°10'7 8.0
2015-Jul-25 04:33N 41°16' E 002°17'4815.3
2015-Jul-25 01:25N 41°17' E 003°21'1516.3
2015-Jul-25 00:30N 41°17' E 003°41'4816.4
2015-Jul-24 21:33N 41°17' E 004°45'2117.1
2015-Jul-24 20:21N 41°18' E 005°13'3016.8
2015-Jul-24 18:33N 41°19' E 005°53'1717.0
2015-Jul-24 17:33N 41°19' E 006°15'1817.0
2015-Jul-24 16:31N 41°20' E 006°39'1716.9
2015-Jul-24 15:32N 41°20' E 007°01'14716.3
2015-Jul-24 06:30N 41°17' E 010°16'1716.7
2015-Jul-24 05:31N 41°16' E 010°39'8416.5
2015-Jul-24 00:25N 40°52' E 012°25'2117.5
2015-Jul-23 23:14N 40°48' E 012°52'1217.7
2015-Jul-23 22:33N 40°44' E 013°08'1817.7
2015-Jul-23 21:33N 40°41' E 013°30'1818.0
2015-Jul-23 20:33N 40°37' E 013°54'22 4.3
2015-Jul-23 15:25N 40°38' E 014°23'0 0.1
2015-Jul-23 14:16N 40°38' E 014°23'0 0.1
2015-Jul-23 13:31N 40°38' E 014°23'0 0.0
2015-Jul-23 12:28N 40°38' E 014°23'0 0.1
2015-Jul-23 11:25N 40°38' E 014°23'0 0.0
2015-Jul-23 10:16N 40°38' E 014°23'0 0.0
2015-Jul-23 09:22N 40°38' E 014°23'0 0.0
2015-Jul-23 08:31N 40°38' E 014°23'0 0.0
2015-Jul-23 07:31N 40°38' E 014°23'127 3.6
2015-Jul-21 20:33N 38°34' E 014°55'14 6.6
2015-Jul-21 18:25N 38°21' E 015°02'  

Dump ship's entire track history